sensor_id;sensor_type;location;lat;lon;timestamp;temperature;humidity
19941;DHT22;10132;50.864;5.176;2023-10-19T00:01:40;15.50;99.90
19941;DHT22;10132;50.864;5.176;2023-10-19T00:03:42;15.50;99.90
19941;DHT22;10132;50.864;5.176;2023-10-19T00:05:45;15.70;99.90
19941;DHT22;10132;50.864;5.176;2023-10-19T00:07:48;15.70;99.90
19941;DHT22;10132;50.864;5.176;2023-10-19T00:09:50;15.80;99.90
19941;DHT22;10132;50.864;5.176;2023-10-19T00:11:55;16.00;99.90
19941;DHT22;10132;50.864;5.176;2023-10-19T00:13:56;16.10;99.90
19941;DHT22;10132;50.864;5.176;2023-10-19T00:15:58;16.20;99.90
19941;DHT22;10132;50.864;5.176;2023-10-19T00:18:00;16.20;99.90
19941;DHT22;10132;50.864;5.176;2023-10-19T00:20:14;16.30;99.90
19941;DHT22;10132;50.864;5.176;2023-10-19T00:22:51;16.30;99.90
19941;DHT22;10132;50.864;5.176;2023-10-19T00:24:54;16.40;99.90
19941;DHT22;10132;50.864;5.176;2023-10-19T00:26:56;16.40;99.90
19941;DHT22;10132;50.864;5.176;2023-10-19T00:29:06;16.40;99.90
19941;DHT22;10132;50.864;5.176;2023-10-19T00:31:28;16.40;99.90
19941;DHT22;10132;50.864;5.176;2023-10-19T00:33:34;16.50;99.90
19941;DHT22;10132;50.864;5.176;2023-10-19T00:35:39;16.40;99.90
19941;DHT22;10132;50.864;5.176;2023-10-19T00:37:47;16.50;99.90
19941;DHT22;10132;50.864;5.176;2023-10-19T00:39:49;16.50;99.90
19941;DHT22;10132;50.864;5.176;2023-10-19T00:41:56;16.40;99.90
19941;DHT22;10132;50.864;5.176;2023-10-19T00:44:00;16.50;99.90
19941;DHT22;10132;50.864;5.176;2023-10-19T00:46:08;16.50;99.90
19941;DHT22;10132;50.864;5.176;2023-10-19T00:48:13;16.40;99.90
19941;DHT22;10132;50.864;5.176;2023-10-19T00:50:18;16.40;99.90
19941;DHT22;10132;50.864;5.176;2023-10-19T00:52:23;16.40;99.90
19941;DHT22;10132;50.864;5.176;2023-10-19T00:54:27;16.40;99.90
19941;DHT22;10132;50.864;5.176;2023-10-19T00:56:34;16.40;99.90
19941;DHT22;10132;50.864;5.176;2023-10-19T00:58:38;16.50;99.90
19941;DHT22;10132;50.864;5.176;2023-10-19T01:00:42;16.50;99.90
19941;DHT22;10132;50.864;5.176;2023-10-19T01:02:45;16.50;99.90
19941;DHT22;10132;50.864;5.176;2023-10-19T01:04:48;16.50;99.90
19941;DHT22;10132;50.864;5.176;2023-10-19T01:06:56;16.40;99.90
19941;DHT22;10132;50.864;5.176;2023-10-19T01:09:05;16.40;99.90
19941;DHT22;10132;50.864;5.176;2023-10-19T01:11:09;16.40;99.90
19941;DHT22;10132;50.864;5.176;2023-10-19T01:13:12;16.40;99.90
19941;DHT22;10132;50.864;5.176;2023-10-19T01:15:19;16.40;99.90
19941;DHT22;10132;50.864;5.176;2023-10-19T01:17:24;16.40;99.90
19941;DHT22;10132;50.864;5.176;2023-10-19T01:19:27;16.40;99.90
19941;DHT22;10132;50.864;5.176;2023-10-19T01:21:29;16.40;99.90
19941;DHT22;10132;50.864;5.176;2023-10-19T01:23:39;16.30;99.90
19941;DHT22;10132;50.864;5.176;2023-10-19T01:25:44;16.30;99.90
19941;DHT22;10132;50.864;5.176;2023-10-19T01:28:00;16.40;99.90
19941;DHT22;10132;50.864;5.176;2023-10-19T01:30:09;16.40;99.90
19941;DHT22;10132;50.864;5.176;2023-10-19T01:32:13;16.40;99.90
19941;DHT22;10132;50.864;5.176;2023-10-19T01:34:16;16.40;99.90
19941;DHT22;10132;50.864;5.176;2023-10-19T01:36:20;16.30;99.90
19941;DHT22;10132;50.864;5.176;2023-10-19T01:38:27;16.30;99.90
19941;DHT22;10132;50.864;5.176;2023-10-19T01:40:32;16.30;99.90
19941;DHT22;10132;50.864;5.176;2023-10-19T01:42:33;16.30;99.90
19941;DHT22;10132;50.864;5.176;2023-10-19T01:44:36;16.30;99.90
19941;DHT22;10132;50.864;5.176;2023-10-19T01:46:37;16.20;99.90
19941;DHT22;10132;50.864;5.176;2023-10-19T01:48:39;16.20;99.90
19941;DHT22;10132;50.864;5.176;2023-10-19T01:50:41;16.20;99.90
19941;DHT22;10132;50.864;5.176;2023-10-19T01:52:43;16.30;99.90
19941;DHT22;10132;50.864;5.176;2023-10-19T01:54:45;16.20;99.90
19941;DHT22;10132;50.864;5.176;2023-10-19T01:56:49;16.20;99.90
19941;DHT22;10132;50.864;5.176;2023-10-19T01:58:51;16.30;99.90
19941;DHT22;10132;50.864;5.176;2023-10-19T02:00:54;16.30;99.90
19941;DHT22;10132;50.864;5.176;2023-10-19T02:02:56;16.30;99.90
19941;DHT22;10132;50.864;5.176;2023-10-19T02:05:01;16.20;99.90
19941;DHT22;10132;50.864;5.176;2023-10-19T02:07:06;16.20;99.90
19941;DHT22;10132;50.864;5.176;2023-10-19T02:09:14;16.20;99.90
19941;DHT22;10132;50.864;5.176;2023-10-19T02:11:19;16.10;99.90
19941;DHT22;10132;50.864;5.176;2023-10-19T02:13:23;16.20;99.90
19941;DHT22;10132;50.864;5.176;2023-10-19T02:15:25;16.10;99.90
19941;DHT22;10132;50.864;5.176;2023-10-19T02:17:27;16.10;99.90
19941;DHT22;10132;50.864;5.176;2023-10-19T02:19:29;16.10;99.90
19941;DHT22;10132;50.864;5.176;2023-10-19T02:21:31;16.10;99.90
19941;DHT22;10132;50.864;5.176;2023-10-19T02:23:33;16.00;99.90
19941;DHT22;10132;50.864;5.176;2023-10-19T02:25:36;16.00;99.90
19941;DHT22;10132;50.864;5.176;2023-10-19T02:27:37;16.00;99.90
19941;DHT22;10132;50.864;5.176;2023-10-19T02:29:40;16.00;99.90
19941;DHT22;10132;50.864;5.176;2023-10-19T02:31:43;16.00;99.90
19941;DHT22;10132;50.864;5.176;2023-10-19T02:33:45;16.00;99.90
19941;DHT22;10132;50.864;5.176;2023-10-19T02:35:46;16.00;99.90
19941;DHT22;10132;50.864;5.176;2023-10-19T02:37:49;16.00;99.90
19941;DHT22;10132;50.864;5.176;2023-10-19T02:39:50;16.00;99.90
19941;DHT22;10132;50.864;5.176;2023-10-19T02:41:52;16.00;99.90
19941;DHT22;10132;50.864;5.176;2023-10-19T02:43:55;16.00;99.90
19941;DHT22;10132;50.864;5.176;2023-10-19T02:46:07;16.00;99.90
19941;DHT22;10132;50.864;5.176;2023-10-19T02:48:08;16.00;99.90
19941;DHT22;10132;50.864;5.176;2023-10-19T02:50:13;16.00;99.90
19941;DHT22;10132;50.864;5.176;2023-10-19T02:52:23;16.00;99.90
19941;DHT22;10132;50.864;5.176;2023-10-19T02:54:25;16.00;99.90
19941;DHT22;10132;50.864;5.176;2023-10-19T02:56:26;16.00;99.90
19941;DHT22;10132;50.864;5.176;2023-10-19T02:58:30;16.00;99.90
19941;DHT22;10132;50.864;5.176;2023-10-19T03:00:31;16.00;99.90
19941;DHT22;10132;50.864;5.176;2023-10-19T03:02:36;16.00;99.90
19941;DHT22;10132;50.864;5.176;2023-10-19T03:04:37;15.90;99.90
19941;DHT22;10132;50.864;5.176;2023-10-19T03:06:40;15.90;99.90
19941;DHT22;10132;50.864;5.176;2023-10-19T03:08:41;15.90;99.90
19941;DHT22;10132;50.864;5.176;2023-10-19T03:10:46;15.90;99.90
19941;DHT22;10132;50.864;5.176;2023-10-19T03:12:48;15.80;99.90
19941;DHT22;10132;50.864;5.176;2023-10-19T03:14:50;15.70;99.90
19941;DHT22;10132;50.864;5.176;2023-10-19T03:16:52;15.60;99.90
19941;DHT22;10132;50.864;5.176;2023-10-19T03:18:56;15.60;99.90
19941;DHT22;10132;50.864;5.176;2023-10-19T03:20:58;15.50;99.90
19941;DHT22;10132;50.864;5.176;2023-10-19T03:23:00;15.50;99.90
19941;DHT22;10132;50.864;5.176;2023-10-19T03:25:03;15.40;99.90
19941;DHT22;10132;50.864;5.176;2023-10-19T03:27:15;15.30;99.90
19941;DHT22;10132;50.864;5.176;2023-10-19T03:29:17;15.30;99.90
19941;DHT22;10132;50.864;5.176;2023-10-19T03:31:24;15.20;99.90
19941;DHT22;10132;50.864;5.176;2023-10-19T03:33:25;15.20;99.90
19941;DHT22;10132;50.864;5.176;2023-10-19T03:35:29;15.20;99.90
19941;DHT22;10132;50.864;5.176;2023-10-19T03:37:31;15.20;99.90
19941;DHT22;10132;50.864;5.176;2023-10-19T03:39:35;15.20;99.90
19941;DHT22;10132;50.864;5.176;2023-10-19T03:41:38;15.10;99.90
19941;DHT22;10132;50.864;5.176;2023-10-19T03:43:42;15.00;99.90
19941;DHT22;10132;50.864;5.176;2023-10-19T03:45:44;15.00;99.90
19941;DHT22;10132;50.864;5.176;2023-10-19T03:47:51;15.00;99.90
19941;DHT22;10132;50.864;5.176;2023-10-19T03:49:56;15.00;99.90
19941;DHT22;10132;50.864;5.176;2023-10-19T03:52:01;15.00;99.90
19941;DHT22;10132;50.864;5.176;2023-10-19T03:54:20;15.00;99.90
19941;DHT22;10132;50.864;5.176;2023-10-19T03:56:24;15.00;99.90
19941;DHT22;10132;50.864;5.176;2023-10-19T03:58:26;14.90;99.90
19941;DHT22;10132;50.864;5.176;2023-10-19T04:00:30;15.00;99.90
19941;DHT22;10132;50.864;5.176;2023-10-19T04:02:33;15.00;99.90
19941;DHT22;10132;50.864;5.176;2023-10-19T04:04:38;15.00;99.90
19941;DHT22;10132;50.864;5.176;2023-10-19T04:06:44;15.00;99.90
19941;DHT22;10132;50.864;5.176;2023-10-19T04:08:50;15.10;99.90
19941;DHT22;10132;50.864;5.176;2023-10-19T04:10:53;15.10;99.90
19941;DHT22;10132;50.864;5.176;2023-10-19T04:13:22;15.00;99.90
19941;DHT22;10132;50.864;5.176;2023-10-19T04:15:24;15.00;99.90
19941;DHT22;10132;50.864;5.176;2023-10-19T04:17:27;15.00;99.90
19941;DHT22;10132;50.864;5.176;2023-10-19T04:19:29;15.00;99.90
19941;DHT22;10132;50.864;5.176;2023-10-19T04:21:30;15.10;99.90
19941;DHT22;10132;50.864;5.176;2023-10-19T04:23:33;15.10;99.90
19941;DHT22;10132;50.864;5.176;2023-10-19T04:25:37;15.10;99.90
19941;DHT22;10132;50.864;5.176;2023-10-19T04:27:38;15.20;99.90
19941;DHT22;10132;50.864;5.176;2023-10-19T04:29:43;15.20;99.90
19941;DHT22;10132;50.864;5.176;2023-10-19T04:31:46;15.20;99.90
19941;DHT22;10132;50.864;5.176;2023-10-19T04:33:55;15.20;99.90
19941;DHT22;10132;50.864;5.176;2023-10-19T04:35:57;15.30;99.90
19941;DHT22;10132;50.864;5.176;2023-10-19T04:38:00;15.30;99.90
19941;DHT22;10132;50.864;5.176;2023-10-19T04:40:03;15.30;99.90
19941;DHT22;10132;50.864;5.176;2023-10-19T04:42:08;15.30;99.90
19941;DHT22;10132;50.864;5.176;2023-10-19T04:44:10;15.40;99.90
19941;DHT22;10132;50.864;5.176;2023-10-19T04:46:13;15.40;99.90
19941;DHT22;10132;50.864;5.176;2023-10-19T04:48:14;15.40;99.90
19941;DHT22;10132;50.864;5.176;2023-10-19T04:50:16;15.40;99.90
19941;DHT22;10132;50.864;5.176;2023-10-19T04:52:18;15.40;99.90
19941;DHT22;10132;50.864;5.176;2023-10-19T04:54:19;15.40;99.90
19941;DHT22;10132;50.864;5.176;2023-10-19T04:56:21;15.40;99.90
19941;DHT22;10132;50.864;5.176;2023-10-19T04:58:23;15.50;99.90
19941;DHT22;10132;50.864;5.176;2023-10-19T05:00:25;15.50;99.90
19941;DHT22;10132;50.864;5.176;2023-10-19T05:02:30;15.60;99.90
19941;DHT22;10132;50.864;5.176;2023-10-19T05:04:30;15.40;99.90
19941;DHT22;10132;50.864;5.176;2023-10-19T05:06:32;15.40;99.90
19941;DHT22;10132;50.864;5.176;2023-10-19T05:08:34;15.40;99.90
19941;DHT22;10132;50.864;5.176;2023-10-19T05:10:37;15.40;99.90
19941;DHT22;10132;50.864;5.176;2023-10-19T05:12:39;15.40;99.90
19941;DHT22;10132;50.864;5.176;2023-10-19T05:14:42;15.40;99.90
19941;DHT22;10132;50.864;5.176;2023-10-19T05:16:43;15.40;99.90
19941;DHT22;10132;50.864;5.176;2023-10-19T05:18:46;15.40;99.90
19941;DHT22;10132;50.864;5.176;2023-10-19T05:20:48;15.50;99.90
19941;DHT22;10132;50.864;5.176;2023-10-19T05:22:55;15.50;99.90
19941;DHT22;10132;50.864;5.176;2023-10-19T05:24:58;15.50;99.90
19941;DHT22;10132;50.864;5.176;2023-10-19T05:26:59;15.50;99.90
19941;DHT22;10132;50.864;5.176;2023-10-19T05:29:01;15.50;99.90
19941;DHT22;10132;50.864;5.176;2023-10-19T05:31:03;15.60;99.90
19941;DHT22;10132;50.864;5.176;2023-10-19T05:33:05;15.60;99.90
19941;DHT22;10132;50.864;5.176;2023-10-19T05:35:08;15.60;99.90
19941;DHT22;10132;50.864;5.176;2023-10-19T05:37:13;15.60;99.90
19941;DHT22;10132;50.864;5.176;2023-10-19T05:39:16;15.60;99.90
19941;DHT22;10132;50.864;5.176;2023-10-19T05:41:18;15.60;99.90
19941;DHT22;10132;50.864;5.176;2023-10-19T05:43:21;15.50;99.90
19941;DHT22;10132;50.864;5.176;2023-10-19T05:45:23;15.50;99.90
19941;DHT22;10132;50.864;5.176;2023-10-19T05:47:24;15.50;99.90
19941;DHT22;10132;50.864;5.176;2023-10-19T05:49:26;15.50;99.90
19941;DHT22;10132;50.864;5.176;2023-10-19T05:51:30;15.50;99.90
19941;DHT22;10132;50.864;5.176;2023-10-19T05:53:32;15.60;99.90
19941;DHT22;10132;50.864;5.176;2023-10-19T05:55:34;15.50;99.90
19941;DHT22;10132;50.864;5.176;2023-10-19T05:57:37;15.50;99.90
19941;DHT22;10132;50.864;5.176;2023-10-19T05:59:40;15.50;99.90
19941;DHT22;10132;50.864;5.176;2023-10-19T06:01:42;15.50;99.90
19941;DHT22;10132;50.864;5.176;2023-10-19T06:03:47;15.50;99.90
19941;DHT22;10132;50.864;5.176;2023-10-19T06:05:49;15.50;99.90
19941;DHT22;10132;50.864;5.176;2023-10-19T06:07:52;15.60;99.90
19941;DHT22;10132;50.864;5.176;2023-10-19T06:09:54;15.60;99.90
19941;DHT22;10132;50.864;5.176;2023-10-19T06:11:56;15.60;99.90
19941;DHT22;10132;50.864;5.176;2023-10-19T06:13:58;15.60;99.90
19941;DHT22;10132;50.864;5.176;2023-10-19T06:16:01;15.70;99.90
19941;DHT22;10132;50.864;5.176;2023-10-19T06:18:03;15.60;99.90
19941;DHT22;10132;50.864;5.176;2023-10-19T06:20:07;15.60;99.90
19941;DHT22;10132;50.864;5.176;2023-10-19T06:22:08;15.60;99.90
19941;DHT22;10132;50.864;5.176;2023-10-19T06:24:11;15.60;99.90
19941;DHT22;10132;50.864;5.176;2023-10-19T06:26:15;15.60;99.90
19941;DHT22;10132;50.864;5.176;2023-10-19T06:28:17;15.60;99.90
19941;DHT22;10132;50.864;5.176;2023-10-19T06:30:19;15.70;99.90
19941;DHT22;10132;50.864;5.176;2023-10-19T06:32:23;15.70;99.90
19941;DHT22;10132;50.864;5.176;2023-10-19T06:34:24;15.60;99.90
19941;DHT22;10132;50.864;5.176;2023-10-19T06:36:28;15.50;99.90
19941;DHT22;10132;50.864;5.176;2023-10-19T06:38:31;15.50;99.90
19941;DHT22;10132;50.864;5.176;2023-10-19T06:40:35;15.50;99.90
19941;DHT22;10132;50.864;5.176;2023-10-19T06:42:37;15.60;99.90
19941;DHT22;10132;50.864;5.176;2023-10-19T06:44:41;15.50;99.90
19941;DHT22;10132;50.864;5.176;2023-10-19T06:46:43;15.50;99.90
19941;DHT22;10132;50.864;5.176;2023-10-19T06:48:45;15.50;99.90
19941;DHT22;10132;50.864;5.176;2023-10-19T06:50:47;15.50;99.90
19941;DHT22;10132;50.864;5.176;2023-10-19T06:52:51;15.50;99.90
19941;DHT22;10132;50.864;5.176;2023-10-19T06:54:55;15.50;99.90
19941;DHT22;10132;50.864;5.176;2023-10-19T06:56:58;15.60;99.90
19941;DHT22;10132;50.864;5.176;2023-10-19T06:59:03;15.60;99.90
19941;DHT22;10132;50.864;5.176;2023-10-19T07:01:07;15.70;99.90
19941;DHT22;10132;50.864;5.176;2023-10-19T07:03:09;15.80;99.90
19941;DHT22;10132;50.864;5.176;2023-10-19T07:05:11;15.80;99.90
19941;DHT22;10132;50.864;5.176;2023-10-19T07:07:14;15.80;99.90
19941;DHT22;10132;50.864;5.176;2023-10-19T07:09:16;15.90;99.90
19941;DHT22;10132;50.864;5.176;2023-10-19T07:11:19;15.80;99.90
19941;DHT22;10132;50.864;5.176;2023-10-19T07:13:22;15.70;99.90
19941;DHT22;10132;50.864;5.176;2023-10-19T07:15:24;15.90;99.90
19941;DHT22;10132;50.864;5.176;2023-10-19T07:17:27;16.00;99.90
19941;DHT22;10132;50.864;5.176;2023-10-19T07:19:29;16.10;99.90
19941;DHT22;10132;50.864;5.176;2023-10-19T07:21:31;16.10;99.90
19941;DHT22;10132;50.864;5.176;2023-10-19T07:23:36;16.10;99.90
19941;DHT22;10132;50.864;5.176;2023-10-19T07:25:39;16.10;99.90
19941;DHT22;10132;50.864;5.176;2023-10-19T07:27:44;16.20;99.90
19941;DHT22;10132;50.864;5.176;2023-10-19T07:29:46;16.30;99.90
19941;DHT22;10132;50.864;5.176;2023-10-19T07:31:49;16.50;99.90
19941;DHT22;10132;50.864;5.176;2023-10-19T07:33:52;16.60;99.90
19941;DHT22;10132;50.864;5.176;2023-10-19T07:35:56;16.70;99.90
19941;DHT22;10132;50.864;5.176;2023-10-19T07:38:00;16.80;99.90
19941;DHT22;10132;50.864;5.176;2023-10-19T07:40:02;16.90;99.90
19941;DHT22;10132;50.864;5.176;2023-10-19T07:42:05;16.80;99.90
19941;DHT22;10132;50.864;5.176;2023-10-19T07:44:07;16.80;99.90
19941;DHT22;10132;50.864;5.176;2023-10-19T07:46:11;16.80;99.90
19941;DHT22;10132;50.864;5.176;2023-10-19T07:48:13;17.00;99.90
19941;DHT22;10132;50.864;5.176;2023-10-19T07:50:16;17.20;99.90
19941;DHT22;10132;50.864;5.176;2023-10-19T07:52:18;17.20;99.90
19941;DHT22;10132;50.864;5.176;2023-10-19T07:54:19;17.20;99.90
19941;DHT22;10132;50.864;5.176;2023-10-19T07:56:21;17.30;99.90
19941;DHT22;10132;50.864;5.176;2023-10-19T07:58:24;17.40;99.90
19941;DHT22;10132;50.864;5.176;2023-10-19T08:00:26;17.50;99.90
19941;DHT22;10132;50.864;5.176;2023-10-19T08:02:31;17.70;99.90
19941;DHT22;10132;50.864;5.176;2023-10-19T08:04:34;17.90;99.90
19941;DHT22;10132;50.864;5.176;2023-10-19T08:06:37;18.10;99.90
19941;DHT22;10132;50.864;5.176;2023-10-19T08:08:39;18.10;99.90
19941;DHT22;10132;50.864;5.176;2023-10-19T08:10:42;18.00;99.90
19941;DHT22;10132;50.864;5.176;2023-10-19T08:12:45;18.00;99.90
19941;DHT22;10132;50.864;5.176;2023-10-19T08:14:48;17.90;99.90
19941;DHT22;10132;50.864;5.176;2023-10-19T08:16:50;17.80;99.90
19941;DHT22;10132;50.864;5.176;2023-10-19T08:18:54;17.70;99.90
19941;DHT22;10132;50.864;5.176;2023-10-19T08:20:56;17.50;99.90
19941;DHT22;10132;50.864;5.176;2023-10-19T08:23:00;17.40;99.90
19941;DHT22;10132;50.864;5.176;2023-10-19T08:25:03;17.40;99.90
19941;DHT22;10132;50.864;5.176;2023-10-19T08:27:12;17.40;99.90
19941;DHT22;10132;50.864;5.176;2023-10-19T08:29:14;17.50;99.90
19941;DHT22;10132;50.864;5.176;2023-10-19T08:31:15;17.60;99.90
19941;DHT22;10132;50.864;5.176;2023-10-19T08:33:17;17.60;99.90
19941;DHT22;10132;50.864;5.176;2023-10-19T08:35:22;17.60;99.90
19941;DHT22;10132;50.864;5.176;2023-10-19T08:37:26;17.70;99.90
19941;DHT22;10132;50.864;5.176;2023-10-19T08:39:28;17.70;99.90
19941;DHT22;10132;50.864;5.176;2023-10-19T08:41:36;17.90;99.90
19941;DHT22;10132;50.864;5.176;2023-10-19T08:43:38;18.10;99.90
19941;DHT22;10132;50.864;5.176;2023-10-19T08:45:42;18.30;99.90
19941;DHT22;10132;50.864;5.176;2023-10-19T08:47:47;18.40;99.90
19941;DHT22;10132;50.864;5.176;2023-10-19T08:49:51;18.50;99.90
19941;DHT22;10132;50.864;5.176;2023-10-19T08:51:54;18.50;99.90
19941;DHT22;10132;50.864;5.176;2023-10-19T08:53:58;18.40;99.90
19941;DHT22;10132;50.864;5.176;2023-10-19T08:56:00;18.30;99.90
19941;DHT22;10132;50.864;5.176;2023-10-19T08:58:04;18.20;99.90
19941;DHT22;10132;50.864;5.176;2023-10-19T09:00:07;18.10;99.90
19941;DHT22;10132;50.864;5.176;2023-10-19T09:02:10;18.00;99.90
19941;DHT22;10132;50.864;5.176;2023-10-19T09:04:12;17.90;99.90
19941;DHT22;10132;50.864;5.176;2023-10-19T09:06:16;17.90;99.90
19941;DHT22;10132;50.864;5.176;2023-10-19T09:08:20;17.90;99.90
19941;DHT22;10132;50.864;5.176;2023-10-19T09:10:23;17.90;99.90
19941;DHT22;10132;50.864;5.176;2023-10-19T09:12:26;17.90;99.90
19941;DHT22;10132;50.864;5.176;2023-10-19T09:14:31;17.90;99.90
19941;DHT22;10132;50.864;5.176;2023-10-19T09:16:36;17.90;99.90
19941;DHT22;10132;50.864;5.176;2023-10-19T09:18:38;17.90;99.90
19941;DHT22;10132;50.864;5.176;2023-10-19T09:20:42;17.90;99.90
19941;DHT22;10132;50.864;5.176;2023-10-19T09:22:53;17.90;99.90
19941;DHT22;10132;50.864;5.176;2023-10-19T09:24:56;18.00;99.90
19941;DHT22;10132;50.864;5.176;2023-10-19T09:26:58;18.10;99.90
19941;DHT22;10132;50.864;5.176;2023-10-19T09:29:01;18.10;99.90
19941;DHT22;10132;50.864;5.176;2023-10-19T09:31:04;18.10;99.90
19941;DHT22;10132;50.864;5.176;2023-10-19T09:33:10;18.10;99.90
19941;DHT22;10132;50.864;5.176;2023-10-19T09:35:11;18.10;99.90
19941;DHT22;10132;50.864;5.176;2023-10-19T09:37:16;18.10;99.90
19941;DHT22;10132;50.864;5.176;2023-10-19T09:39:19;18.00;99.90
19941;DHT22;10132;50.864;5.176;2023-10-19T09:41:22;18.00;99.90
19941;DHT22;10132;50.864;5.176;2023-10-19T09:43:34;18.10;99.90
19941;DHT22;10132;50.864;5.176;2023-10-19T09:45:41;18.30;99.90
19941;DHT22;10132;50.864;5.176;2023-10-19T09:47:49;18.30;99.90
19941;DHT22;10132;50.864;5.176;2023-10-19T09:49:51;18.30;99.90
19941;DHT22;10132;50.864;5.176;2023-10-19T09:51:53;18.20;99.90
19941;DHT22;10132;50.864;5.176;2023-10-19T09:54:00;18.20;99.90
19941;DHT22;10132;50.864;5.176;2023-10-19T09:56:06;18.30;99.90
19941;DHT22;10132;50.864;5.176;2023-10-19T09:58:15;18.40;99.90
19941;DHT22;10132;50.864;5.176;2023-10-19T10:00:17;18.50;99.90
19941;DHT22;10132;50.864;5.176;2023-10-19T10:02:24;18.60;99.90
19941;DHT22;10132;50.864;5.176;2023-10-19T10:04:31;18.70;99.90
19941;DHT22;10132;50.864;5.176;2023-10-19T10:06:57;18.90;99.90
19941;DHT22;10132;50.864;5.176;2023-10-19T10:09:00;18.90;99.90
19941;DHT22;10132;50.864;5.176;2023-10-19T10:11:18;18.90;99.90
19941;DHT22;10132;50.864;5.176;2023-10-19T10:13:41;18.90;99.90
19941;DHT22;10132;50.864;5.176;2023-10-19T10:15:43;18.80;99.90
19941;DHT22;10132;50.864;5.176;2023-10-19T10:17:49;18.70;99.90
19941;DHT22;10132;50.864;5.176;2023-10-19T10:19:55;18.70;99.90
19941;DHT22;10132;50.864;5.176;2023-10-19T10:22:04;18.70;99.90
19941;DHT22;10132;50.864;5.176;2023-10-19T10:24:12;18.70;99.90
19941;DHT22;10132;50.864;5.176;2023-10-19T10:26:16;18.60;99.90
19941;DHT22;10132;50.864;5.176;2023-10-19T10:28:18;18.70;99.90
19941;DHT22;10132;50.864;5.176;2023-10-19T10:30:21;18.70;99.90
19941;DHT22;10132;50.864;5.176;2023-10-19T10:32:43;18.70;99.90
19941;DHT22;10132;50.864;5.176;2023-10-19T10:34:45;18.90;99.90
19941;DHT22;10132;50.864;5.176;2023-10-19T10:36:59;19.10;99.90
19941;DHT22;10132;50.864;5.176;2023-10-19T10:39:03;19.40;99.90
19941;DHT22;10132;50.864;5.176;2023-10-19T10:41:07;19.50;99.90
19941;DHT22;10132;50.864;5.176;2023-10-19T10:43:11;19.60;99.90
19941;DHT22;10132;50.864;5.176;2023-10-19T10:45:20;19.50;99.90
19941;DHT22;10132;50.864;5.176;2023-10-19T10:47:23;19.50;99.90
19941;DHT22;10132;50.864;5.176;2023-10-19T10:49:26;19.60;99.90
19941;DHT22;10132;50.864;5.176;2023-10-19T10:51:27;19.60;99.90
19941;DHT22;10132;50.864;5.176;2023-10-19T10:53:30;19.50;99.90
19941;DHT22;10132;50.864;5.176;2023-10-19T10:55:32;19.50;99.90
19941;DHT22;10132;50.864;5.176;2023-10-19T10:57:34;19.40;99.90
19941;DHT22;10132;50.864;5.176;2023-10-19T10:59:37;19.40;99.90
19941;DHT22;10132;50.864;5.176;2023-10-19T11:01:40;19.70;99.90
19941;DHT22;10132;50.864;5.176;2023-10-19T11:03:43;19.90;99.90
19941;DHT22;10132;50.864;5.176;2023-10-19T11:05:45;20.10;99.90
19941;DHT22;10132;50.864;5.176;2023-10-19T11:08:02;20.00;99.90
19941;DHT22;10132;50.864;5.176;2023-10-19T11:10:05;19.90;99.90
19941;DHT22;10132;50.864;5.176;2023-10-19T11:12:11;19.80;99.90
19941;DHT22;10132;50.864;5.176;2023-10-19T11:14:13;19.80;99.90
19941;DHT22;10132;50.864;5.176;2023-10-19T11:16:22;19.80;99.90
19941;DHT22;10132;50.864;5.176;2023-10-19T11:18:33;19.90;99.90
19941;DHT22;10132;50.864;5.176;2023-10-19T11:20:37;19.90;99.90
19941;DHT22;10132;50.864;5.176;2023-10-19T11:22:48;19.90;99.90
19941;DHT22;10132;50.864;5.176;2023-10-19T11:24:50;19.80;99.90
19941;DHT22;10132;50.864;5.176;2023-10-19T11:26:52;19.60;99.90
19941;DHT22;10132;50.864;5.176;2023-10-19T11:28:59;19.50;99.90
19941;DHT22;10132;50.864;5.176;2023-10-19T11:31:14;19.40;99.90
19941;DHT22;10132;50.864;5.176;2023-10-19T11:33:15;19.30;99.90
19941;DHT22;10132;50.864;5.176;2023-10-19T11:35:20;19.30;99.90
19941;DHT22;10132;50.864;5.176;2023-10-19T11:37:22;19.30;99.90
19941;DHT22;10132;50.864;5.176;2023-10-19T11:39:25;19.20;99.90
19941;DHT22;10132;50.864;5.176;2023-10-19T11:41:26;19.10;99.90
19941;DHT22;10132;50.864;5.176;2023-10-19T11:43:28;19.00;99.90
19941;DHT22;10132;50.864;5.176;2023-10-19T11:45:30;18.90;99.90
19941;DHT22;10132;50.864;5.176;2023-10-19T11:47:32;18.70;99.90
19941;DHT22;10132;50.864;5.176;2023-10-19T11:49:34;18.60;99.90
19941;DHT22;10132;50.864;5.176;2023-10-19T11:51:37;18.50;99.90
19941;DHT22;10132;50.864;5.176;2023-10-19T11:53:39;18.30;99.90
19941;DHT22;10132;50.864;5.176;2023-10-19T11:55:41;18.20;99.90
19941;DHT22;10132;50.864;5.176;2023-10-19T11:57:43;18.10;99.90
19941;DHT22;10132;50.864;5.176;2023-10-19T11:59:45;18.10;99.90
19941;DHT22;10132;50.864;5.176;2023-10-19T12:01:52;18.10;99.90
19941;DHT22;10132;50.864;5.176;2023-10-19T12:03:55;18.20;99.90
19941;DHT22;10132;50.864;5.176;2023-10-19T12:05:57;18.20;99.90
19941;DHT22;10132;50.864;5.176;2023-10-19T12:08:00;18.10;99.90
19941;DHT22;10132;50.864;5.176;2023-10-19T12:10:03;18.20;99.90
19941;DHT22;10132;50.864;5.176;2023-10-19T12:12:05;18.10;99.90
19941;DHT22;10132;50.864;5.176;2023-10-19T12:14:07;18.10;99.90
19941;DHT22;10132;50.864;5.176;2023-10-19T12:16:12;18.20;99.90
19941;DHT22;10132;50.864;5.176;2023-10-19T12:18:16;18.10;99.90
19941;DHT22;10132;50.864;5.176;2023-10-19T12:20:18;18.10;99.90
19941;DHT22;10132;50.864;5.176;2023-10-19T12:22:22;18.10;99.90
19941;DHT22;10132;50.864;5.176;2023-10-19T12:24:26;18.10;99.90
19941;DHT22;10132;50.864;5.176;2023-10-19T12:26:29;18.10;99.90
19941;DHT22;10132;50.864;5.176;2023-10-19T12:28:31;17.90;99.90
19941;DHT22;10132;50.864;5.176;2023-10-19T12:30:33;17.80;99.90
19941;DHT22;10132;50.864;5.176;2023-10-19T12:32:37;17.70;99.90
19941;DHT22;10132;50.864;5.176;2023-10-19T12:34:40;17.70;99.90
19941;DHT22;10132;50.864;5.176;2023-10-19T12:36:42;17.70;99.90
19941;DHT22;10132;50.864;5.176;2023-10-19T12:38:47;17.70;99.90
19941;DHT22;10132;50.864;5.176;2023-10-19T12:40:51;17.70;99.90
19941;DHT22;10132;50.864;5.176;2023-10-19T12:42:55;17.70;99.90
19941;DHT22;10132;50.864;5.176;2023-10-19T12:44:56;17.70;99.90
19941;DHT22;10132;50.864;5.176;2023-10-19T12:46:58;17.70;99.90
19941;DHT22;10132;50.864;5.176;2023-10-19T12:48:59;17.70;99.90
19941;DHT22;10132;50.864;5.176;2023-10-19T12:51:01;17.80;99.90
19941;DHT22;10132;50.864;5.176;2023-10-19T12:53:04;17.70;99.90
19941;DHT22;10132;50.864;5.176;2023-10-19T12:55:07;17.70;99.90
19941;DHT22;10132;50.864;5.176;2023-10-19T12:57:11;17.60;99.90
19941;DHT22;10132;50.864;5.176;2023-10-19T12:59:13;17.70;99.90
19941;DHT22;10132;50.864;5.176;2023-10-19T13:01:18;17.80;99.90
19941;DHT22;10132;50.864;5.176;2023-10-19T13:03:20;18.00;99.90